Ixonia, Wisconsin
Current Conditions -  °F | °C
As of 10:55 PM on Wednesday 24 Dec 2014 (Local Time) from KRYV Reporting Station
Overcast Overcast  
Wind Chill: 26°   Ceiling: 1400
Heat Index: 34°   Visibility: 10mi
Dew Point: 32°   Wind: 9mph
Humidity: 93%   Direction: 270°W
Pressure: 29.58"   Gusts: NA
Location:  43.14°N, 88.6°W
Report Text: KRYV 250455Z AUTO 27008KT 10SM BKN014 OVC027 01/00 A2958 RMK AO2 T00100000
Loading
Personal Weather Stations






























Interactive Weather Map New forecast layout! Learn more

10-Day Weather Forecast

Advertisements
Track Severe Weather on mobile